sensor_id;sensor_type;location;lat;lon;timestamp;P1;durP1;ratioP1;P2;durP2;ratioP2
14847;SDS011;7516;43.570;1.448;2023-02-19T00:01:23;5.47;;;4.20;;
14847;SDS011;7516;43.570;1.448;2023-02-19T00:03:52;4.40;;;3.63;;
14847;SDS011;7516;43.570;1.448;2023-02-19T00:06:22;5.07;;;3.63;;
14847;SDS011;7516;43.570;1.448;2023-02-19T00:08:50;4.97;;;3.83;;
14847;SDS011;7516;43.570;1.448;2023-02-19T00:11:19;4.77;;;3.70;;
14847;SDS011;7516;43.570;1.448;2023-02-19T00:13:48;4.80;;;3.80;;
14847;SDS011;7516;43.570;1.448;2023-02-19T00:16:18;4.57;;;3.87;;
14847;SDS011;7516;43.570;1.448;2023-02-19T00:18:46;4.60;;;4.10;;
14847;SDS011;7516;43.570;1.448;2023-02-19T00:21:14;4.90;;;3.97;;
14847;SDS011;7516;43.570;1.448;2023-02-19T00:23:44;4.83;;;3.63;;
14847;SDS011;7516;43.570;1.448;2023-02-19T00:26:15;5.17;;;3.77;;
14847;SDS011;7516;43.570;1.448;2023-02-19T00:28:43;4.43;;;3.50;;
14847;SDS011;7516;43.570;1.448;2023-02-19T00:31:13;4.37;;;3.90;;
14847;SDS011;7516;43.570;1.448;2023-02-19T00:33:42;5.33;;;4.27;;
14847;SDS011;7516;43.570;1.448;2023-02-19T00:36:10;5.00;;;3.90;;
14847;SDS011;7516;43.570;1.448;2023-02-19T00:38:39;5.10;;;3.90;;
14847;SDS011;7516;43.570;1.448;2023-02-19T00:41:09;4.60;;;3.73;;
14847;SDS011;7516;43.570;1.448;2023-02-19T00:43:47;5.07;;;3.80;;
14847;SDS011;7516;43.570;1.448;2023-02-19T00:46:16;6.67;;;4.60;;
14847;SDS011;7516;43.570;1.448;2023-02-19T00:48:45;5.43;;;4.20;;
14847;SDS011;7516;43.570;1.448;2023-02-19T00:51:13;5.67;;;4.30;;
14847;SDS011;7516;43.570;1.448;2023-02-19T00:53:41;5.30;;;4.50;;
14847;SDS011;7516;43.570;1.448;2023-02-19T00:56:10;5.27;;;4.23;;
14847;SDS011;7516;43.570;1.448;2023-02-19T00:58:38;5.67;;;4.07;;
14847;SDS011;7516;43.570;1.448;2023-02-19T01:01:06;4.87;;;3.93;;
14847;SDS011;7516;43.570;1.448;2023-02-19T01:03:34;6.60;;;4.30;;
14847;SDS011;7516;43.570;1.448;2023-02-19T01:06:03;5.23;;;4.13;;
14847;SDS011;7516;43.570;1.448;2023-02-19T01:08:32;4.60;;;4.03;;
14847;SDS011;7516;43.570;1.448;2023-02-19T01:11:00;5.60;;;4.23;;
14847;SDS011;7516;43.570;1.448;2023-02-19T01:13:30;5.20;;;4.20;;
14847;SDS011;7516;43.570;1.448;2023-02-19T01:16:01;6.07;;;4.40;;
14847;SDS011;7516;43.570;1.448;2023-02-19T01:18:29;4.87;;;4.03;;
14847;SDS011;7516;43.570;1.448;2023-02-19T01:20:57;4.93;;;4.23;;
14847;SDS011;7516;43.570;1.448;2023-02-19T01:23:24;4.90;;;4.20;;
14847;SDS011;7516;43.570;1.448;2023-02-19T01:25:52;4.80;;;4.27;;
14847;SDS011;7516;43.570;1.448;2023-02-19T01:28:20;5.87;;;4.43;;
14847;SDS011;7516;43.570;1.448;2023-02-19T01:30:48;4.97;;;4.20;;
14847;SDS011;7516;43.570;1.448;2023-02-19T01:33:16;5.80;;;4.77;;
14847;SDS011;7516;43.570;1.448;2023-02-19T01:35:43;5.53;;;4.20;;
14847;SDS011;7516;43.570;1.448;2023-02-19T01:38:11;4.70;;;4.03;;
14847;SDS011;7516;43.570;1.448;2023-02-19T01:40:38;5.10;;;4.20;;
14847;SDS011;7516;43.570;1.448;2023-02-19T01:43:09;5.57;;;4.60;;
14847;SDS011;7516;43.570;1.448;2023-02-19T01:45:42;4.93;;;4.20;;
14847;SDS011;7516;43.570;1.448;2023-02-19T01:48:12;5.40;;;4.37;;
14847;SDS011;7516;43.570;1.448;2023-02-19T01:50:43;5.03;;;4.07;;
14847;SDS011;7516;43.570;1.448;2023-02-19T01:53:15;5.83;;;4.30;;
14847;SDS011;7516;43.570;1.448;2023-02-19T01:55:45;5.47;;;4.70;;
14847;SDS011;7516;43.570;1.448;2023-02-19T01:58:15;5.20;;;4.47;;
14847;SDS011;7516;43.570;1.448;2023-02-19T02:00:43;5.50;;;4.43;;
14847;SDS011;7516;43.570;1.448;2023-02-19T02:03:12;5.17;;;4.33;;
14847;SDS011;7516;43.570;1.448;2023-02-19T02:05:44;4.90;;;4.10;;
14847;SDS011;7516;43.570;1.448;2023-02-19T02:08:19;6.43;;;4.50;;
14847;SDS011;7516;43.570;1.448;2023-02-19T02:11:04;5.00;;;4.43;;
14847;SDS011;7516;43.570;1.448;2023-02-19T02:13:32;4.80;;;4.03;;
14847;SDS011;7516;43.570;1.448;2023-02-19T02:16:03;5.13;;;4.30;;
14847;SDS011;7516;43.570;1.448;2023-02-19T02:18:43;5.30;;;4.33;;
14847;SDS011;7516;43.570;1.448;2023-02-19T02:21:31;5.43;;;4.60;;
14847;SDS011;7516;43.570;1.448;2023-02-19T02:24:28;5.03;;;4.50;;
14847;SDS011;7516;43.570;1.448;2023-02-19T02:27:12;5.37;;;4.47;;
14847;SDS011;7516;43.570;1.448;2023-02-19T02:30:02;6.23;;;4.70;;
14847;SDS011;7516;43.570;1.448;2023-02-19T02:32:42;5.77;;;4.70;;
14847;SDS011;7516;43.570;1.448;2023-02-19T02:35:17;5.87;;;4.70;;
14847;SDS011;7516;43.570;1.448;2023-02-19T02:37:48;6.10;;;4.63;;
14847;SDS011;7516;43.570;1.448;2023-02-19T02:40:19;5.23;;;4.70;;
14847;SDS011;7516;43.570;1.448;2023-02-19T02:42:47;5.70;;;4.63;;
14847;SDS011;7516;43.570;1.448;2023-02-19T02:45:22;5.73;;;4.73;;
14847;SDS011;7516;43.570;1.448;2023-02-19T02:48:03;6.17;;;4.87;;
14847;SDS011;7516;43.570;1.448;2023-02-19T02:50:36;5.10;;;4.33;;
14847;SDS011;7516;43.570;1.448;2023-02-19T02:53:07;6.57;;;4.63;;
14847;SDS011;7516;43.570;1.448;2023-02-19T02:55:56;6.13;;;4.97;;
14847;SDS011;7516;43.570;1.448;2023-02-19T02:58:25;6.53;;;4.97;;
14847;SDS011;7516;43.570;1.448;2023-02-19T03:00:57;7.33;;;4.73;;
14847;SDS011;7516;43.570;1.448;2023-02-19T03:03:46;6.13;;;4.63;;
14847;SDS011;7516;43.570;1.448;2023-02-19T03:06:18;6.37;;;4.90;;
14847;SDS011;7516;43.570;1.448;2023-02-19T03:08:51;7.00;;;5.10;;
14847;SDS011;7516;43.570;1.448;2023-02-19T03:11:24;5.80;;;4.83;;
14847;SDS011;7516;43.570;1.448;2023-02-19T03:14:10;5.30;;;4.57;;
14847;SDS011;7516;43.570;1.448;2023-02-19T03:17:02;5.70;;;5.10;;
14847;SDS011;7516;43.570;1.448;2023-02-19T03:19:55;6.30;;;4.67;;
14847;SDS011;7516;43.570;1.448;2023-02-19T03:22:26;5.87;;;5.00;;
14847;SDS011;7516;43.570;1.448;2023-02-19T03:24:58;7.13;;;4.83;;
14847;SDS011;7516;43.570;1.448;2023-02-19T03:27:47;6.13;;;5.10;;
14847;SDS011;7516;43.570;1.448;2023-02-19T03:30:17;7.23;;;5.20;;
14847;SDS011;7516;43.570;1.448;2023-02-19T03:32:49;6.67;;;4.83;;
14847;SDS011;7516;43.570;1.448;2023-02-19T03:35:21;6.30;;;5.17;;
14847;SDS011;7516;43.570;1.448;2023-02-19T03:37:52;7.07;;;5.03;;
14847;SDS011;7516;43.570;1.448;2023-02-19T03:40:26;5.53;;;4.70;;
14847;SDS011;7516;43.570;1.448;2023-02-19T03:42:58;5.80;;;4.87;;
14847;SDS011;7516;43.570;1.448;2023-02-19T03:45:32;6.10;;;4.83;;
14847;SDS011;7516;43.570;1.448;2023-02-19T03:48:16;6.17;;;4.90;;
14847;SDS011;7516;43.570;1.448;2023-02-19T03:50:53;6.40;;;4.90;;
14847;SDS011;7516;43.570;1.448;2023-02-19T03:53:28;6.33;;;4.80;;
14847;SDS011;7516;43.570;1.448;2023-02-19T03:56:05;6.67;;;5.10;;
14847;SDS011;7516;43.570;1.448;2023-02-19T03:58:38;7.33;;;5.20;;
14847;SDS011;7516;43.570;1.448;2023-02-19T04:01:13;6.80;;;5.30;;
14847;SDS011;7516;43.570;1.448;2023-02-19T04:03:47;6.23;;;5.07;;
14847;SDS011;7516;43.570;1.448;2023-02-19T04:06:19;5.30;;;4.77;;
14847;SDS011;7516;43.570;1.448;2023-02-19T04:08:52;7.30;;;5.33;;
14847;SDS011;7516;43.570;1.448;2023-02-19T04:11:24;6.27;;;4.87;;
14847;SDS011;7516;43.570;1.448;2023-02-19T04:13:55;6.47;;;4.77;;
14847;SDS011;7516;43.570;1.448;2023-02-19T04:16:28;6.40;;;5.37;;
14847;SDS011;7516;43.570;1.448;2023-02-19T04:19:01;6.00;;;4.80;;
14847;SDS011;7516;43.570;1.448;2023-02-19T04:21:32;6.50;;;5.10;;
14847;SDS011;7516;43.570;1.448;2023-02-19T04:24:03;6.60;;;4.97;;
14847;SDS011;7516;43.570;1.448;2023-02-19T04:26:35;7.00;;;5.23;;
14847;SDS011;7516;43.570;1.448;2023-02-19T04:29:03;6.43;;;4.73;;
14847;SDS011;7516;43.570;1.448;2023-02-19T04:31:31;6.53;;;5.10;;
14847;SDS011;7516;43.570;1.448;2023-02-19T04:34:02;5.97;;;4.90;;
14847;SDS011;7516;43.570;1.448;2023-02-19T04:36:30;5.27;;;4.70;;
14847;SDS011;7516;43.570;1.448;2023-02-19T04:38:58;6.87;;;5.20;;
14847;SDS011;7516;43.570;1.448;2023-02-19T04:41:25;7.43;;;5.20;;
14847;SDS011;7516;43.570;1.448;2023-02-19T04:43:53;6.07;;;5.37;;
14847;SDS011;7516;43.570;1.448;2023-02-19T04:46:20;6.60;;;5.23;;
14847;SDS011;7516;43.570;1.448;2023-02-19T04:48:48;6.40;;;5.00;;
14847;SDS011;7516;43.570;1.448;2023-02-19T04:51:17;5.73;;;4.87;;
14847;SDS011;7516;43.570;1.448;2023-02-19T04:53:44;6.10;;;4.97;;
14847;SDS011;7516;43.570;1.448;2023-02-19T04:56:13;6.37;;;5.17;;
14847;SDS011;7516;43.570;1.448;2023-02-19T04:58:41;6.13;;;5.00;;
14847;SDS011;7516;43.570;1.448;2023-02-19T05:01:10;7.67;;;5.17;;
14847;SDS011;7516;43.570;1.448;2023-02-19T05:03:37;5.50;;;4.83;;
14847;SDS011;7516;43.570;1.448;2023-02-19T05:06:06;6.37;;;4.77;;
14847;SDS011;7516;43.570;1.448;2023-02-19T05:08:36;5.77;;;5.13;;
14847;SDS011;7516;43.570;1.448;2023-02-19T05:11:05;6.00;;;4.83;;
14847;SDS011;7516;43.570;1.448;2023-02-19T05:13:34;6.77;;;5.33;;
14847;SDS011;7516;43.570;1.448;2023-02-19T05:16:03;6.27;;;5.10;;
14847;SDS011;7516;43.570;1.448;2023-02-19T05:18:32;5.97;;;5.00;;
14847;SDS011;7516;43.570;1.448;2023-02-19T05:21:00;5.77;;;5.10;;
14847;SDS011;7516;43.570;1.448;2023-02-19T05:23:28;6.23;;;5.20;;
14847;SDS011;7516;43.570;1.448;2023-02-19T05:25:56;7.17;;;5.63;;
14847;SDS011;7516;43.570;1.448;2023-02-19T05:28:24;6.00;;;5.03;;
14847;SDS011;7516;43.570;1.448;2023-02-19T05:30:54;6.53;;;5.00;;
14847;SDS011;7516;43.570;1.448;2023-02-19T05:33:22;6.47;;;5.23;;
14847;SDS011;7516;43.570;1.448;2023-02-19T05:35:51;7.23;;;5.17;;
14847;SDS011;7516;43.570;1.448;2023-02-19T05:38:20;6.43;;;5.20;;
14847;SDS011;7516;43.570;1.448;2023-02-19T05:40:48;7.20;;;5.53;;
14847;SDS011;7516;43.570;1.448;2023-02-19T05:43:18;6.50;;;4.90;;
14847;SDS011;7516;43.570;1.448;2023-02-19T05:45:45;7.03;;;5.33;;
14847;SDS011;7516;43.570;1.448;2023-02-19T05:48:13;5.50;;;4.80;;
14847;SDS011;7516;43.570;1.448;2023-02-19T05:50:40;6.23;;;4.97;;
14847;SDS011;7516;43.570;1.448;2023-02-19T05:53:08;6.77;;;5.17;;
14847;SDS011;7516;43.570;1.448;2023-02-19T05:55:35;6.10;;;5.13;;
14847;SDS011;7516;43.570;1.448;2023-02-19T05:58:03;6.20;;;5.10;;
14847;SDS011;7516;43.570;1.448;2023-02-19T06:00:32;6.20;;;4.73;;
14847;SDS011;7516;43.570;1.448;2023-02-19T06:03:00;6.23;;;4.90;;
14847;SDS011;7516;43.570;1.448;2023-02-19T06:05:27;6.03;;;4.93;;
14847;SDS011;7516;43.570;1.448;2023-02-19T06:07:55;6.47;;;4.97;;
14847;SDS011;7516;43.570;1.448;2023-02-19T06:10:22;5.80;;;4.63;;
14847;SDS011;7516;43.570;1.448;2023-02-19T06:12:51;6.07;;;5.13;;
14847;SDS011;7516;43.570;1.448;2023-02-19T06:15:19;6.27;;;5.10;;
14847;SDS011;7516;43.570;1.448;2023-02-19T06:17:48;5.17;;;4.40;;
14847;SDS011;7516;43.570;1.448;2023-02-19T06:20:16;6.33;;;4.87;;
14847;SDS011;7516;43.570;1.448;2023-02-19T06:22:43;5.97;;;5.00;;
14847;SDS011;7516;43.570;1.448;2023-02-19T06:25:11;6.33;;;5.07;;
14847;SDS011;7516;43.570;1.448;2023-02-19T06:27:38;6.10;;;4.80;;
14847;SDS011;7516;43.570;1.448;2023-02-19T06:30:06;6.30;;;5.13;;
14847;SDS011;7516;43.570;1.448;2023-02-19T06:32:34;5.70;;;5.07;;
14847;SDS011;7516;43.570;1.448;2023-02-19T06:35:04;6.00;;;4.80;;
14847;SDS011;7516;43.570;1.448;2023-02-19T06:37:32;5.53;;;4.93;;
14847;SDS011;7516;43.570;1.448;2023-02-19T06:39:59;7.47;;;5.13;;
14847;SDS011;7516;43.570;1.448;2023-02-19T06:42:30;6.57;;;5.03;;
14847;SDS011;7516;43.570;1.448;2023-02-19T06:44:57;5.63;;;4.80;;
14847;SDS011;7516;43.570;1.448;2023-02-19T06:47:25;5.63;;;4.83;;
14847;SDS011;7516;43.570;1.448;2023-02-19T06:49:55;6.17;;;4.70;;
14847;SDS011;7516;43.570;1.448;2023-02-19T06:52:24;6.53;;;5.10;;
14847;SDS011;7516;43.570;1.448;2023-02-19T06:54:52;6.33;;;4.80;;
14847;SDS011;7516;43.570;1.448;2023-02-19T06:57:19;6.70;;;4.67;;
14847;SDS011;7516;43.570;1.448;2023-02-19T06:59:47;5.27;;;4.77;;
14847;SDS011;7516;43.570;1.448;2023-02-19T07:02:14;6.40;;;4.93;;
14847;SDS011;7516;43.570;1.448;2023-02-19T07:04:42;6.37;;;5.13;;
14847;SDS011;7516;43.570;1.448;2023-02-19T07:07:09;6.53;;;4.93;;
14847;SDS011;7516;43.570;1.448;2023-02-19T07:09:38;5.70;;;4.93;;
14847;SDS011;7516;43.570;1.448;2023-02-19T07:12:06;5.70;;;4.93;;
14847;SDS011;7516;43.570;1.448;2023-02-19T07:14:34;7.50;;;5.10;;
14847;SDS011;7516;43.570;1.448;2023-02-19T07:17:01;6.90;;;5.00;;
14847;SDS011;7516;43.570;1.448;2023-02-19T07:19:29;6.03;;;4.90;;
14847;SDS011;7516;43.570;1.448;2023-02-19T07:21:56;6.37;;;5.13;;
14847;SDS011;7516;43.570;1.448;2023-02-19T07:24:24;6.17;;;5.00;;
14847;SDS011;7516;43.570;1.448;2023-02-19T07:26:53;5.27;;;4.73;;
14847;SDS011;7516;43.570;1.448;2023-02-19T07:29:20;6.23;;;4.67;;
14847;SDS011;7516;43.570;1.448;2023-02-19T07:31:49;6.23;;;4.90;;
14847;SDS011;7516;43.570;1.448;2023-02-19T07:34:16;6.77;;;5.03;;
14847;SDS011;7516;43.570;1.448;2023-02-19T07:36:44;5.87;;;4.37;;
14847;SDS011;7516;43.570;1.448;2023-02-19T07:39:12;6.13;;;5.10;;
14847;SDS011;7516;43.570;1.448;2023-02-19T07:41:40;6.00;;;5.20;;
14847;SDS011;7516;43.570;1.448;2023-02-19T07:44:09;6.07;;;5.27;;
14847;SDS011;7516;43.570;1.448;2023-02-19T07:46:40;7.67;;;4.80;;
14847;SDS011;7516;43.570;1.448;2023-02-19T07:49:08;6.33;;;5.50;;
14847;SDS011;7516;43.570;1.448;2023-02-19T07:51:35;6.60;;;5.10;;
14847;SDS011;7516;43.570;1.448;2023-02-19T07:54:04;5.67;;;4.90;;
14847;SDS011;7516;43.570;1.448;2023-02-19T07:56:31;6.30;;;5.00;;
14847;SDS011;7516;43.570;1.448;2023-02-19T07:58:59;6.33;;;5.03;;
14847;SDS011;7516;43.570;1.448;2023-02-19T08:01:28;5.90;;;4.87;;
14847;SDS011;7516;43.570;1.448;2023-02-19T08:04:16;6.33;;;5.27;;
14847;SDS011;7516;43.570;1.448;2023-02-19T08:06:43;7.43;;;5.17;;
14847;SDS011;7516;43.570;1.448;2023-02-19T08:09:11;6.00;;;5.00;;
14847;SDS011;7516;43.570;1.448;2023-02-19T08:11:39;6.27;;;5.20;;
14847;SDS011;7516;43.570;1.448;2023-02-19T08:14:24;5.83;;;5.13;;
14847;SDS011;7516;43.570;1.448;2023-02-19T08:16:53;5.80;;;4.87;;
14847;SDS011;7516;43.570;1.448;2023-02-19T08:19:21;6.90;;;5.33;;
14847;SDS011;7516;43.570;1.448;2023-02-19T08:21:49;5.87;;;5.10;;
14847;SDS011;7516;43.570;1.448;2023-02-19T08:24:17;5.97;;;4.90;;
14847;SDS011;7516;43.570;1.448;2023-02-19T08:26:45;5.60;;;4.90;;
14847;SDS011;7516;43.570;1.448;2023-02-19T08:29:12;6.30;;;5.10;;
14847;SDS011;7516;43.570;1.448;2023-02-19T08:31:40;6.13;;;4.70;;
14847;SDS011;7516;43.570;1.448;2023-02-19T08:34:09;5.77;;;4.80;;
14847;SDS011;7516;43.570;1.448;2023-02-19T08:36:36;6.87;;;4.83;;
14847;SDS011;7516;43.570;1.448;2023-02-19T08:39:04;5.00;;;4.50;;
14847;SDS011;7516;43.570;1.448;2023-02-19T08:41:31;5.83;;;4.70;;
14847;SDS011;7516;43.570;1.448;2023-02-19T08:43:59;6.07;;;4.93;;
14847;SDS011;7516;43.570;1.448;2023-02-19T08:46:26;6.23;;;5.03;;
14847;SDS011;7516;43.570;1.448;2023-02-19T08:48:54;6.37;;;4.70;;
14847;SDS011;7516;43.570;1.448;2023-02-19T08:51:23;6.07;;;5.07;;
14847;SDS011;7516;43.570;1.448;2023-02-19T08:53:50;6.73;;;5.23;;
14847;SDS011;7516;43.570;1.448;2023-02-19T08:56:18;5.63;;;4.60;;
14847;SDS011;7516;43.570;1.448;2023-02-19T08:58:45;6.67;;;4.90;;
14847;SDS011;7516;43.570;1.448;2023-02-19T09:01:13;6.10;;;5.20;;
14847;SDS011;7516;43.570;1.448;2023-02-19T09:03:42;5.17;;;4.67;;
14847;SDS011;7516;43.570;1.448;2023-02-19T09:06:11;6.00;;;4.80;;
14847;SDS011;7516;43.570;1.448;2023-02-19T09:08:42;5.50;;;4.90;;
14847;SDS011;7516;43.570;1.448;2023-02-19T09:11:10;6.17;;;5.10;;
14847;SDS011;7516;43.570;1.448;2023-02-19T09:13:37;6.97;;;5.23;;
14847;SDS011;7516;43.570;1.448;2023-02-19T09:16:05;6.63;;;5.13;;
14847;SDS011;7516;43.570;1.448;2023-02-19T09:18:33;5.73;;;4.90;;
14847;SDS011;7516;43.570;1.448;2023-02-19T09:21:01;7.03;;;5.53;;
14847;SDS011;7516;43.570;1.448;2023-02-19T09:23:31;6.43;;;5.00;;
14847;SDS011;7516;43.570;1.448;2023-02-19T09:26:00;5.73;;;5.10;;
14847;SDS011;7516;43.570;1.448;2023-02-19T09:28:31;7.83;;;5.73;;
14847;SDS011;7516;43.570;1.448;2023-02-19T09:31:02;6.80;;;5.50;;
14847;SDS011;7516;43.570;1.448;2023-02-19T09:33:30;7.53;;;6.20;;
14847;SDS011;7516;43.570;1.448;2023-02-19T09:35:57;8.03;;;6.03;;
14847;SDS011;7516;43.570;1.448;2023-02-19T09:38:25;5.93;;;5.00;;
14847;SDS011;7516;43.570;1.448;2023-02-19T09:40:55;6.83;;;5.47;;
14847;SDS011;7516;43.570;1.448;2023-02-19T09:43:25;5.53;;;4.93;;
14847;SDS011;7516;43.570;1.448;2023-02-19T09:46:01;6.27;;;5.60;;
14847;SDS011;7516;43.570;1.448;2023-02-19T09:48:32;7.57;;;5.43;;
14847;SDS011;7516;43.570;1.448;2023-02-19T09:50:59;5.77;;;5.10;;
14847;SDS011;7516;43.570;1.448;2023-02-19T09:53:28;7.00;;;5.30;;
14847;SDS011;7516;43.570;1.448;2023-02-19T09:56:04;6.47;;;5.50;;
14847;SDS011;7516;43.570;1.448;2023-02-19T09:58:34;6.23;;;4.93;;
14847;SDS011;7516;43.570;1.448;2023-02-19T10:01:06;6.17;;;4.73;;
14847;SDS011;7516;43.570;1.448;2023-02-19T10:03:37;6.87;;;4.90;;
14847;SDS011;7516;43.570;1.448;2023-02-19T10:06:10;5.73;;;5.07;;
14847;SDS011;7516;43.570;1.448;2023-02-19T10:08:45;7.47;;;5.77;;
14847;SDS011;7516;43.570;1.448;2023-02-19T10:11:14;7.83;;;5.70;;
14847;SDS011;7516;43.570;1.448;2023-02-19T10:13:44;9.17;;;7.53;;
14847;SDS011;7516;43.570;1.448;2023-02-19T10:16:15;8.47;;;7.43;;
14847;SDS011;7516;43.570;1.448;2023-02-19T10:18:45;10.60;;;7.93;;
14847;SDS011;7516;43.570;1.448;2023-02-19T10:21:14;9.90;;;8.30;;
14847;SDS011;7516;43.570;1.448;2023-02-19T10:23:45;11.30;;;7.23;;
14847;SDS011;7516;43.570;1.448;2023-02-19T10:26:16;11.40;;;6.37;;
14847;SDS011;7516;43.570;1.448;2023-02-19T10:28:45;8.10;;;6.87;;
14847;SDS011;7516;43.570;1.448;2023-02-19T10:31:15;8.87;;;7.47;;
14847;SDS011;7516;43.570;1.448;2023-02-19T10:33:50;9.20;;;7.43;;
14847;SDS011;7516;43.570;1.448;2023-02-19T10:36:26;9.20;;;6.83;;
14847;SDS011;7516;43.570;1.448;2023-02-19T10:38:57;9.67;;;6.80;;
14847;SDS011;7516;43.570;1.448;2023-02-19T10:41:25;10.27;;;7.33;;
14847;SDS011;7516;43.570;1.448;2023-02-19T10:43:55;8.43;;;6.83;;
14847;SDS011;7516;43.570;1.448;2023-02-19T10:46:28;8.87;;;7.00;;
14847;SDS011;7516;43.570;1.448;2023-02-19T10:48:59;8.67;;;6.83;;
14847;SDS011;7516;43.570;1.448;2023-02-19T10:51:30;10.13;;;7.57;;
14847;SDS011;7516;43.570;1.448;2023-02-19T10:54:05;10.97;;;7.53;;
14847;SDS011;7516;43.570;1.448;2023-02-19T10:56:40;10.97;;;6.93;;
14847;SDS011;7516;43.570;1.448;2023-02-19T10:59:20;11.40;;;7.70;;
14847;SDS011;7516;43.570;1.448;2023-02-19T11:01:54;9.43;;;7.17;;
14847;SDS011;7516;43.570;1.448;2023-02-19T11:04:23;10.10;;;7.57;;
14847;SDS011;7516;43.570;1.448;2023-02-19T11:06:51;9.23;;;7.20;;
14847;SDS011;7516;43.570;1.448;2023-02-19T11:09:22;8.30;;;6.33;;
14847;SDS011;7516;43.570;1.448;2023-02-19T11:11:53;8.27;;;6.70;;
14847;SDS011;7516;43.570;1.448;2023-02-19T11:14:24;10.77;;;7.00;;
14847;SDS011;7516;43.570;1.448;2023-02-19T11:16:53;12.00;;;8.00;;
14847;SDS011;7516;43.570;1.448;2023-02-19T11:19:30;10.47;;;7.37;;
14847;SDS011;7516;43.570;1.448;2023-02-19T11:22:02;11.37;;;8.27;;
14847;SDS011;7516;43.570;1.448;2023-02-19T11:24:54;8.67;;;6.97;;
14847;SDS011;7516;43.570;1.448;2023-02-19T11:27:24;8.83;;;7.47;;
14847;SDS011;7516;43.570;1.448;2023-02-19T11:29:53;10.23;;;7.50;;
14847;SDS011;7516;43.570;1.448;2023-02-19T11:32:24;11.07;;;7.93;;
14847;SDS011;7516;43.570;1.448;2023-02-19T11:35:14;10.40;;;7.57;;
14847;SDS011;7516;43.570;1.448;2023-02-19T11:37:54;9.60;;;7.33;;
14847;SDS011;7516;43.570;1.448;2023-02-19T11:40:25;11.90;;;8.00;;
14847;SDS011;7516;43.570;1.448;2023-02-19T11:43:04;8.93;;;7.33;;
14847;SDS011;7516;43.570;1.448;2023-02-19T11:45:45;9.67;;;7.10;;
14847;SDS011;7516;43.570;1.448;2023-02-19T11:48:30;10.77;;;7.83;;
14847;SDS011;7516;43.570;1.448;2023-02-19T11:51:11;12.27;;;8.10;;
14847;SDS011;7516;43.570;1.448;2023-02-19T11:53:50;10.63;;;7.33;;
14847;SDS011;7516;43.570;1.448;2023-02-19T11:56:33;9.73;;;7.97;;
14847;SDS011;7516;43.570;1.448;2023-02-19T11:59:04;11.97;;;8.80;;
14847;SDS011;7516;43.570;1.448;2023-02-19T12:04:45;8.77;;;7.57;;
14847;SDS011;7516;43.570;1.448;2023-02-19T12:10:35;9.43;;;6.07;;
14847;SDS011;7516;43.570;1.448;2023-02-19T12:13:13;8.63;;;6.20;;
14847;SDS011;7516;43.570;1.448;2023-02-19T12:15:56;8.20;;;5.97;;
14847;SDS011;7516;43.570;1.448;2023-02-19T12:21:36;6.97;;;6.00;;
14847;SDS011;7516;43.570;1.448;2023-02-19T12:24:21;6.33;;;5.70;;
14847;SDS011;7516;43.570;1.448;2023-02-19T12:27:07;8.97;;;5.60;;
14847;SDS011;7516;43.570;1.448;2023-02-19T12:29:51;7.77;;;5.27;;
14847;SDS011;7516;43.570;1.448;2023-02-19T12:35:43;7.73;;;5.93;;
14847;SDS011;7516;43.570;1.448;2023-02-19T12:38:21;7.57;;;6.20;;
14847;SDS011;7516;43.570;1.448;2023-02-19T12:41:03;8.10;;;6.33;;
14847;SDS011;7516;43.570;1.448;2023-02-19T12:43:41;7.53;;;5.83;;
14847;SDS011;7516;43.570;1.448;2023-02-19T12:46:17;5.87;;;5.10;;
14847;SDS011;7516;43.570;1.448;2023-02-19T12:48:49;7.87;;;5.20;;
14847;SDS011;7516;43.570;1.448;2023-02-19T12:51:26;7.43;;;5.37;;
14847;SDS011;7516;43.570;1.448;2023-02-19T12:53:59;7.10;;;5.13;;
14847;SDS011;7516;43.570;1.448;2023-02-19T12:56:33;7.90;;;5.23;;
14847;SDS011;7516;43.570;1.448;2023-02-19T12:59:07;6.97;;;4.87;;
14847;SDS011;7516;43.570;1.448;2023-02-19T13:01:42;6.53;;;4.93;;
14847;SDS011;7516;43.570;1.448;2023-02-19T13:04:17;6.17;;;4.53;;
14847;SDS011;7516;43.570;1.448;2023-02-19T13:06:54;5.60;;;4.30;;
14847;SDS011;7516;43.570;1.448;2023-02-19T13:09:25;6.10;;;4.50;;
14847;SDS011;7516;43.570;1.448;2023-02-19T13:11:59;6.93;;;4.77;;
14847;SDS011;7516;43.570;1.448;2023-02-19T13:14:33;6.27;;;4.03;;
14847;SDS011;7516;43.570;1.448;2023-02-19T13:17:05;6.37;;;4.63;;
14847;SDS011;7516;43.570;1.448;2023-02-19T13:19:45;5.93;;;4.43;;
14847;SDS011;7516;43.570;1.448;2023-02-19T13:22:18;7.17;;;5.13;;
14847;SDS011;7516;43.570;1.448;2023-02-19T13:25:07;6.40;;;5.00;;
14847;SDS011;7516;43.570;1.448;2023-02-19T13:27:43;5.43;;;4.50;;
14847;SDS011;7516;43.570;1.448;2023-02-19T13:33:15;6.70;;;3.70;;
14847;SDS011;7516;43.570;1.448;2023-02-19T13:38:41;4.70;;;3.40;;
14847;SDS011;7516;43.570;1.448;2023-02-19T13:41:16;5.17;;;3.37;;
14847;SDS011;7516;43.570;1.448;2023-02-19T13:43:45;5.10;;;3.80;;
14847;SDS011;7516;43.570;1.448;2023-02-19T13:46:21;6.27;;;3.73;;
14847;SDS011;7516;43.570;1.448;2023-02-19T13:51:50;6.20;;;3.40;;
14847;SDS011;7516;43.570;1.448;2023-02-19T13:54:24;3.80;;;3.40;;
14847;SDS011;7516;43.570;1.448;2023-02-19T13:59:50;4.43;;;3.57;;
14847;SDS011;7516;43.570;1.448;2023-02-19T14:04:59;5.40;;;3.23;;
14847;SDS011;7516;43.570;1.448;2023-02-19T14:19:45;4.53;;;3.10;;
14847;SDS011;7516;43.570;1.448;2023-02-19T14:25:30;6.07;;;3.60;;
14847;SDS011;7516;43.570;1.448;2023-02-19T14:28:22;5.17;;;3.40;;
14847;SDS011;7516;43.570;1.448;2023-02-19T14:31:02;4.40;;;3.43;;
14847;SDS011;7516;43.570;1.448;2023-02-19T14:33:45;4.77;;;3.20;;
14847;SDS011;7516;43.570;1.448;2023-02-19T14:36:17;4.10;;;2.93;;
14847;SDS011;7516;43.570;1.448;2023-02-19T14:38:53;4.93;;;2.57;;
14847;SDS011;7516;43.570;1.448;2023-02-19T14:41:22;3.90;;;2.70;;
14847;SDS011;7516;43.570;1.448;2023-02-19T14:43:51;2.73;;;2.53;;
14847;SDS011;7516;43.570;1.448;2023-02-19T14:46:23;3.33;;;2.67;;
14847;SDS011;7516;43.570;1.448;2023-02-19T14:48:58;3.73;;;2.77;;
14847;SDS011;7516;43.570;1.448;2023-02-19T14:51:31;3.37;;;2.53;;
14847;SDS011;7516;43.570;1.448;2023-02-19T14:54:05;4.60;;;2.70;;
14847;SDS011;7516;43.570;1.448;2023-02-19T14:56:39;5.27;;;2.50;;
14847;SDS011;7516;43.570;1.448;2023-02-19T14:59:21;5.07;;;2.73;;
14847;SDS011;7516;43.570;1.448;2023-02-19T15:01:55;3.43;;;2.70;;
14847;SDS011;7516;43.570;1.448;2023-02-19T15:04:25;3.40;;;2.27;;
14847;SDS011;7516;43.570;1.448;2023-02-19T15:06:55;5.03;;;2.83;;
14847;SDS011;7516;43.570;1.448;2023-02-19T15:09:28;6.03;;;2.70;;
14847;SDS011;7516;43.570;1.448;2023-02-19T15:11:58;4.20;;;2.30;;
14847;SDS011;7516;43.570;1.448;2023-02-19T15:14:28;5.33;;;3.13;;
14847;SDS011;7516;43.570;1.448;2023-02-19T15:16:57;3.57;;;3.13;;
14847;SDS011;7516;43.570;1.448;2023-02-19T15:19:29;3.70;;;2.70;;
14847;SDS011;7516;43.570;1.448;2023-02-19T15:22:00;4.40;;;2.83;;
14847;SDS011;7516;43.570;1.448;2023-02-19T15:24:29;4.63;;;3.00;;
14847;SDS011;7516;43.570;1.448;2023-02-19T15:26:57;5.57;;;2.70;;
14847;SDS011;7516;43.570;1.448;2023-02-19T15:29:25;3.10;;;2.57;;
14847;SDS011;7516;43.570;1.448;2023-02-19T15:31:54;3.87;;;2.80;;
14847;SDS011;7516;43.570;1.448;2023-02-19T15:34:23;3.77;;;2.80;;
14847;SDS011;7516;43.570;1.448;2023-02-19T15:36:54;3.23;;;2.53;;
14847;SDS011;7516;43.570;1.448;2023-02-19T15:39:24;3.53;;;2.50;;
14847;SDS011;7516;43.570;1.448;2023-02-19T15:41:57;3.37;;;2.33;;
14847;SDS011;7516;43.570;1.448;2023-02-19T15:44:31;4.97;;;2.50;;
14847;SDS011;7516;43.570;1.448;2023-02-19T15:47:06;3.23;;;2.53;;
14847;SDS011;7516;43.570;1.448;2023-02-19T15:49:45;4.63;;;2.60;;
14847;SDS011;7516;43.570;1.448;2023-02-19T15:52:20;3.27;;;2.57;;
14847;SDS011;7516;43.570;1.448;2023-02-19T15:54:55;4.43;;;2.60;;
14847;SDS011;7516;43.570;1.448;2023-02-19T15:57:28;3.47;;;2.47;;
14847;SDS011;7516;43.570;1.448;2023-02-19T16:00:02;4.67;;;3.10;;
14847;SDS011;7516;43.570;1.448;2023-02-19T16:02:38;4.43;;;2.93;;
14847;SDS011;7516;43.570;1.448;2023-02-19T16:05:10;4.37;;;2.63;;
14847;SDS011;7516;43.570;1.448;2023-02-19T16:07:41;3.60;;;2.70;;
14847;SDS011;7516;43.570;1.448;2023-02-19T16:10:16;3.57;;;2.53;;